Time;durP1;ratioP1;P1;durP2;ratioP2;P2;SDS_P1;SDS_P2;PMS_P1;PMS_P2;Temp;Humidity;BMP_temperature;BMP_pressure;BME280_temperature;BME280_humidity;BME280_pressure;Samples;Min_cycle;Max_cycle;Signal;HPM_P1;HPM_P2
2022/11/03 00:01:11;;;;;;;;;;;11.30;81.00;;;-151.14;100.00;62537.16;5064333;28;19921;-84
2022/11/03 00:03:39;;;;;;;;;;;11.30;81.00;;;-151.14;100.00;62537.16;5048169;28;19954;-84
2022/11/03 00:06:07;;;;;;;;;;;11.30;81.00;;;-151.14;100.00;62537.16;5047611;28;19927;-84
2022/11/03 00:08:37;;;;;;;;;;;11.30;81.20;;;-151.14;100.00;62537.16;5064526;28;19952;-83
2022/11/03 00:11:06;;;;;;;;;;;11.30;81.80;;;-151.14;100.00;62537.16;5047815;28;19927;-84
2022/11/03 00:13:35;;;;;;;;;;;11.30;81.20;;;-151.14;100.00;62537.16;5079888;28;19921;-83
2022/11/03 00:16:03;;;;;;;;;;;11.30;81.10;;;-151.14;100.00;62537.16;5067370;28;19924;-84
2022/11/03 00:18:33;;;;;;;;;;;11.30;81.30;;;-151.14;100.00;62537.16;5085517;28;19926;-84
2022/11/03 00:21:01;;;;;;;;;;;11.30;81.20;;;-151.14;100.00;62537.16;5067146;28;19920;-83
2022/11/03 00:23:30;;;;;;;;;;;11.30;81.20;;;-151.14;100.00;62537.16;5067450;28;19920;-84
2022/11/03 00:26:09;;;;;;;;;;;11.30;81.40;;;-151.14;100.00;62537.16;5067148;28;19920;-83
2022/11/03 00:28:37;;;;;;;;;;;11.30;81.20;;;-151.14;100.00;62537.16;5085552;28;20112;-84
2022/11/03 00:31:10;;;;;;;;;;;11.30;81.30;;;-151.14;100.00;62537.16;5084187;28;19927;-84
2022/11/03 00:33:39;;;;;;;;;;;11.30;81.20;;;-151.14;100.00;62537.16;5083989;28;20330;-84
2022/11/03 00:36:08;;;;;;;;;;;11.30;81.30;;;-151.14;100.00;62537.16;5066876;28;19920;-84
2022/11/03 00:38:36;;;;;;;;;;;11.30;81.40;;;-151.14;100.00;62537.16;5067405;28;19927;-84
2022/11/03 00:41:57;;;;;;;;;;;11.30;81.50;;;-151.14;100.00;62537.16;5067173;28;19927;-84
2022/11/03 00:44:26;;;;;;;;;;;11.30;81.30;;;-151.14;100.00;62537.16;5083941;28;19920;-84
2022/11/03 00:46:54;;;;;;;;;;;11.30;81.30;;;-151.14;100.00;62537.16;5083770;28;20234;-84
2022/11/03 00:49:23;;;;;;;;;;;11.30;81.30;;;-151.14;100.00;62537.16;5050355;28;19927;-84
2022/11/03 00:51:51;;;;;;;;;;;11.30;81.40;;;-151.14;100.00;62537.16;5084010;28;20234;-84
2022/11/03 00:54:19;;;;;;;;;;;11.30;81.40;;;-151.14;100.00;62537.16;5083693;28;19927;-84
2022/11/03 00:56:53;;;;;;;;;;;11.30;82.30;;;-151.14;100.00;62537.16;5083555;28;20212;-84
2022/11/03 01:02:31;;;;;;;;;;;11.30;81.80;;;-151.14;100.00;62537.16;5083539;28;19920;-84
2022/11/03 01:07:46;;;;;;;;;;;11.30;81.70;;;-151.14;100.00;62537.16;5046917;28;19926;-84
2022/11/03 01:10:14;;;;;;;;;;;11.30;81.60;;;-151.14;100.00;62537.16;5046881;28;20097;-84
2022/11/03 01:12:42;;;;;;;;;;;11.30;81.40;;;-151.14;100.00;62537.16;5046817;28;20254;-84
2022/11/03 01:15:10;;;;;;;;;;;11.30;81.70;;;-151.14;100.00;62537.16;5046268;28;19920;-84
2022/11/03 01:17:39;;;;;;;;;;;11.30;81.70;;;-151.14;100.00;62537.16;5063468;28;19934;-84
2022/11/03 01:20:10;;;;;;;;;;;11.30;81.80;;;-151.14;100.00;62537.16;5063450;28;19920;-85
2022/11/03 01:22:38;;;;;;;;;;;11.30;81.90;;;-151.14;100.00;62537.16;5063225;28;19920;-84
2022/11/03 01:25:06;;;;;;;;;;;11.30;82.00;;;-151.14;100.00;62537.16;5063819;28;19927;-84
2022/11/03 01:27:34;;;;;;;;;;;11.30;82.00;;;-151.14;100.00;62537.16;5046556;28;19921;-83
2022/11/03 01:30:02;;;;;;;;;;;11.30;81.80;;;-151.14;100.00;62537.16;5046684;28;19920;-83
2022/11/03 01:32:31;;;;;;;;;;;11.30;81.90;;;-151.14;100.00;62537.16;5045872;28;19920;-84
2022/11/03 01:34:59;;;;;;;;;;;11.30;82.00;;;-151.14;100.00;62537.16;5062569;28;19921;-84
2022/11/03 01:37:28;;;;;;;;;;;11.30;82.10;;;-151.14;100.00;62537.16;5064168;28;19927;-84
2022/11/03 01:39:56;;;;;;;;;;;11.30;82.10;;;-151.14;100.00;62537.16;5046339;28;19927;-84
2022/11/03 01:42:24;;;;;;;;;;;11.30;82.00;;;-151.14;100.00;62537.16;5064090;28;19921;-84
2022/11/03 01:44:52;;;;;;;;;;;11.30;82.00;;;-151.14;100.00;62537.16;5062551;28;20115;-84
2022/11/03 01:47:22;;;;;;;;;;;11.30;82.10;;;-151.14;100.00;62537.16;5062977;28;19921;-84
2022/11/03 01:49:53;;;;;;;;;;;11.30;82.00;;;-151.14;100.00;62537.16;5062927;28;19927;-84
2022/11/03 01:52:23;;;;;;;;;;;11.30;82.10;;;-151.14;100.00;62537.16;5046285;28;19920;-84
2022/11/03 01:54:55;;;;;;;;;;;11.30;82.00;;;-151.14;100.00;62537.16;5062413;28;19921;-84
2022/11/03 01:57:25;;;;;;;;;;;11.30;81.70;;;-151.14;100.00;62537.16;5062788;28;19928;-84
2022/11/03 01:59:54;;;;;;;;;;;11.30;81.80;;;-151.14;100.00;62537.16;5046198;28;19926;-84
2022/11/03 02:02:26;;;;;;;;;;;11.30;82.00;;;-151.14;100.00;62537.16;5063830;28;20115;-84
2022/11/03 02:04:54;;;;;;;;;;;11.30;82.00;;;-151.14;100.00;62537.16;5062468;28;19927;-83
2022/11/03 02:07:24;;;;;;;;;;;11.30;82.00;;;-151.14;100.00;62537.16;5062701;28;19920;-83
2022/11/03 02:09:53;;;;;;;;;;;11.30;82.10;;;-151.14;100.00;62537.16;5046030;28;19921;-83
2022/11/03 02:12:21;;;;;;;;;;;11.30;82.10;;;-151.14;100.00;62537.16;5062581;28;20123;-83
2022/11/03 02:14:51;;;;;;;;;;;11.30;82.10;;;-151.14;100.00;62537.16;5062071;28;19929;-83
2022/11/03 02:17:19;;;;;;;;;;;11.30;82.30;;;-151.14;100.00;62537.16;5045803;28;19928;-83
2022/11/03 02:19:49;;;;;;;;;;;11.30;82.10;;;-151.14;100.00;62537.16;5062539;28;19943;-83
2022/11/03 02:22:43;;;;;;;;;;;11.30;82.20;;;-151.14;100.00;62537.16;5045750;28;20234;-83
2022/11/03 02:25:18;;;;;;;;;;;11.30;82.10;;;-151.14;100.00;62537.16;5036568;28;19943;-83
2022/11/03 02:27:48;;;;;;;;;;;11.30;82.10;;;-151.14;100.00;62537.16;5062431;28;19929;-83
2022/11/03 02:30:16;;;;;;;;;;;11.30;82.10;;;-151.14;100.00;62537.16;5045765;28;19921;-83
2022/11/03 02:32:51;;;;;;;;;;;11.30;82.10;;;-151.14;100.00;62537.16;5062439;28;19920;-83
2022/11/03 02:35:21;;;;;;;;;;;11.30;82.10;;;-151.14;100.00;62537.16;5062916;28;19934;-83
2022/11/03 02:37:50;;;;;;;;;;;11.30;82.20;;;-151.14;100.00;62537.16;5045693;28;19920;-84
2022/11/03 02:40:20;;;;;;;;;;;11.30;82.30;;;-151.14;100.00;62537.16;5063456;28;19920;-83
2022/11/03 02:42:50;;;;;;;;;;;11.30;82.20;;;-151.14;100.00;62537.16;5062213;28;19921;-83
2022/11/03 02:45:20;;;;;;;;;;;11.30;82.20;;;-151.14;100.00;62537.16;5047327;28;19921;-83
2022/11/03 02:47:48;;;;;;;;;;;11.30;82.20;;;-151.14;100.00;62537.16;5049180;28;20238;-83
2022/11/03 02:50:16;;;;;;;;;;;11.30;83.10;;;-151.14;100.00;62537.16;5066960;28;19920;-83
2022/11/03 02:52:45;;;;;;;;;;;11.30;82.20;;;-151.14;100.00;62537.16;5065672;28;19927;-83
2022/11/03 02:55:16;;;;;;;;;;;11.30;82.30;;;-151.14;100.00;62537.16;5048452;28;19920;-83
2022/11/03 02:57:47;;;;;;;;;;;11.30;82.20;;;-151.14;100.00;62537.16;5066786;28;19920;-83
2022/11/03 03:00:17;;;;;;;;;;;11.30;82.10;;;-151.14;100.00;62537.16;5065718;28;19920;-83
2022/11/03 03:02:50;;;;;;;;;;;11.30;82.00;;;-151.14;100.00;62537.16;5065387;28;19920;-83
2022/11/03 03:05:19;;;;;;;;;;;11.30;81.90;;;-151.14;100.00;62537.16;5064838;28;19920;-83
2022/11/03 03:07:48;;;;;;;;;;;11.30;81.60;;;-151.14;100.00;62537.16;5048135;28;19931;-83
2022/11/03 03:10:17;;;;;;;;;;;11.30;81.60;;;-151.14;100.00;62537.16;5064530;28;20101;-83
2022/11/03 03:12:47;;;;;;;;;;;11.30;81.50;;;-151.14;100.00;62537.16;5066399;28;19920;-83
2022/11/03 03:15:17;;;;;;;;;;;11.30;81.60;;;-151.14;100.00;62537.16;5064874;28;19979;-83
2022/11/03 03:17:45;;;;;;;;;;;11.30;81.60;;;-151.14;100.00;62537.16;5065147;28;19927;-83
2022/11/03 03:20:15;;;;;;;;;;;11.30;81.50;;;-151.14;100.00;62537.16;5065341;28;19921;-83
2022/11/03 03:22:44;;;;;;;;;;;11.30;81.50;;;-151.14;100.00;62537.16;5065086;28;19930;-83
2022/11/03 03:25:14;;;;;;;;;;;11.30;81.60;;;-151.14;100.00;62537.16;5064630;28;19921;-83
2022/11/03 03:27:44;;;;;;;;;;;11.30;81.60;;;-151.14;100.00;62537.16;5065150;28;19926;-83
2022/11/03 03:30:13;;;;;;;;;;;11.30;81.90;;;-151.14;100.00;62537.16;5067135;28;20116;-83
2022/11/03 03:32:44;;;;;;;;;;;11.30;82.00;;;-151.14;100.00;62537.16;5068385;28;19920;-83
2022/11/03 03:35:15;;;;;;;;;;;11.30;82.00;;;-151.14;100.00;62537.16;5084602;28;19930;-83
2022/11/03 03:37:46;;;;;;;;;;;11.30;82.20;;;-151.14;100.00;62537.16;5084912;28;19920;-83
2022/11/03 03:40:16;;;;;;;;;;;11.30;82.10;;;-151.14;100.00;62537.16;5067236;28;19920;-83
2022/11/03 03:42:43;;;;;;;;;;;11.30;82.30;;;;;;5066071;28;20112;-83
2022/11/03 03:45:11;;;;;;;;;;;11.30;82.30;;;-151.14;100.00;62537.16;5064205;28;19927;-83
2022/11/03 03:47:39;;;;;;;;;;;11.30;82.30;;;-151.14;100.00;62537.16;5066077;28;20227;-83
2022/11/03 03:50:09;;;;;;;;;;;11.30;82.20;;;-151.14;100.00;62537.16;5048083;28;20230;-83
2022/11/03 03:52:37;;;;;;;;;;;11.30;82.20;;;;;;5081362;28;19943;-83
2022/11/03 03:55:05;;;;;;;;;;;11.30;82.20;;;-151.14;100.00;62537.16;5065355;28;20122;-83
2022/11/03 03:57:33;;;;;;;;;;;11.30;82.10;;;-151.14;100.00;62537.16;5063965;28;19921;-83
2022/11/03 04:00:20;;;;;;;;;;;11.30;82.20;;;-151.14;100.00;62537.16;5065825;28;19920;-83
2022/11/03 04:02:48;;;;;;;;;;;11.30;82.20;;;-151.14;100.00;62537.16;5064488;28;19927;-83
2022/11/03 04:05:18;;;;;;;;;;;11.30;82.30;;;-151.14;100.00;62537.16;5047397;28;19926;-83
2022/11/03 04:07:48;;;;;;;;;;;11.30;82.30;;;-151.14;100.00;62537.16;5047793;28;19926;-83
2022/11/03 04:10:17;;;;;;;;;;;11.30;82.20;;;-151.14;100.00;62537.16;5064625;28;20116;-83
2022/11/03 04:23:48;;;;;;;;;;;11.30;82.30;;;-151.14;100.00;62537.16;5047456;28;19935;-83
2022/11/03 04:26:18;;;;;;;;;;;11.30;82.50;;;-151.14;100.00;62537.16;5063776;28;19927;-83
2022/11/03 04:28:46;;;;;;;;;;;11.30;82.40;;;-151.14;100.00;62537.16;5064124;28;19921;-83
2022/11/03 04:31:14;;;;;;;;;;;11.30;82.40;;;-151.14;100.00;62537.16;5064092;28;19927;-83
2022/11/03 04:33:42;;;;;;;;;;;11.30;82.30;;;-151.14;100.00;62537.16;5063899;28;20235;-83
2022/11/03 04:36:15;;;;;;;;;;;11.30;82.40;;;-151.14;100.00;62537.16;5047050;28;19920;-83
2022/11/03 04:38:43;;;;;;;;;;;11.30;82.20;;;-151.14;100.00;62537.16;5047431;28;20109;-83
2022/11/03 04:41:14;;;;;;;;;;;11.30;82.40;;;-151.14;100.00;62537.16;5064005;28;19920;-83
2022/11/03 04:43:43;;;;;;;;;;;11.30;82.60;;;-151.14;100.00;62537.16;5063917;28;19924;-83
2022/11/03 04:46:11;;;;;;;;;;;11.30;82.40;;;-151.14;100.00;62537.16;5063552;28;19978;-83
2022/11/03 04:48:39;;;;;;;;;;;11.30;82.40;;;-151.14;100.00;62537.16;5063989;28;19927;-83
2022/11/03 04:51:15;;;;;;;;;;;11.30;82.40;;;-151.14;100.00;62537.16;5063889;28;20132;-83
2022/11/03 04:53:49;;;;;;;;;;;11.30;82.30;;;-151.14;100.00;62537.16;5047020;28;19921;-83
2022/11/03 04:56:19;;;;;;;;;;;11.30;82.30;;;-151.14;100.00;62537.16;5064655;28;19973;-83
2022/11/03 04:58:47;;;;;;;;;;;11.30;82.30;;;-151.14;100.00;62537.16;5063603;28;19926;-83
2022/11/03 05:01:18;;;;;;;;;;;11.30;82.30;;;-151.14;100.00;62537.16;5064613;28;20120;-83
2022/11/03 05:03:48;;;;;;;;;;;11.30;82.40;;;-151.14;100.00;62537.16;5046860;28;20208;-83
2022/11/03 05:06:18;;;;;;;;;;;11.30;82.40;;;-151.14;100.00;62537.16;5063373;28;19926;-83
2022/11/03 05:08:48;;;;;;;;;;;11.30;82.40;;;-151.14;100.00;62537.16;5045774;28;19920;-83
2022/11/03 05:11:20;;;;;;;;;;;11.30;82.40;;;-151.14;100.00;62537.16;5046879;28;20258;-83
2022/11/03 05:13:48;;;;;;;;;;;11.30;82.50;;;-151.14;100.00;62537.16;5063398;28;19920;-83
2022/11/03 05:16:17;;;;;;;;;;;11.30;82.50;;;-151.14;100.00;62537.16;5063092;28;20367;-83
2022/11/03 05:18:46;;;;;;;;;;;11.30;82.40;;;-151.14;100.00;62537.16;5046858;28;19920;-83
2022/11/03 05:21:15;;;;;;;;;;;11.30;82.50;;;-151.14;100.00;62537.16;5046707;28;20093;-83
2022/11/03 05:23:46;;;;;;;;;;;11.30;82.40;;;-151.14;100.00;62537.16;5046634;28;19926;-83
2022/11/03 05:26:16;;;;;;;;;;;11.30;82.40;;;-151.14;100.00;62537.16;5046310;28;19927;-83
2022/11/03 05:28:46;;;;;;;;;;;11.30;83.30;;;-151.14;100.00;62537.16;5047073;28;20112;-83
2022/11/03 05:31:21;;;;;;;;;;;11.30;82.50;;;-151.14;100.00;62537.16;5063174;28;19920;-83
2022/11/03 05:33:50;;;;;;;;;;;11.30;82.40;;;-151.14;100.00;62537.16;5046472;28;19921;-83
2022/11/03 05:36:20;;;;;;;;;;;11.30;82.40;;;-151.14;100.00;62537.16;5046211;28;19927;-83
2022/11/03 05:38:49;;;;;;;;;;;11.30;82.40;;;-151.14;100.00;62537.16;5046602;28;19920;-83
2022/11/03 05:41:21;;;;;;;;;;;11.30;82.40;;;-151.14;100.00;62537.16;5063169;28;20108;-83
2022/11/03 05:43:54;;;;;;;;;;;11.30;82.40;;;-151.14;100.00;62537.16;5063042;28;19935;-83
2022/11/03 05:46:22;;;;;;;;;;;11.30;82.40;;;-151.14;100.00;62537.16;5029509;28;19921;-83
2022/11/03 05:48:50;;;;;;;;;;;11.30;82.40;;;-151.14;100.00;62537.16;5046240;28;19927;-83
2022/11/03 05:51:20;;;;;;;;;;;11.30;82.40;;;-151.14;100.00;62537.16;5046293;28;19926;-83
2022/11/03 05:53:51;;;;;;;;;;;11.30;82.40;;;-151.14;100.00;62537.16;5063929;28;19924;-83
2022/11/03 05:56:20;;;;;;;;;;;11.30;82.40;;;10.28;100.00;62537.16;5045851;28;19927;-83
2022/11/03 05:58:49;;;;;;;;;;;11.30;82.40;;;-151.14;100.00;62537.16;5062947;28;19920;-83
2022/11/03 06:01:19;;;;;;;;;;;11.30;82.40;;;-151.14;100.00;62537.16;5062591;28;19920;-83
2022/11/03 06:03:47;;;;;;;;;;;11.30;82.40;;;-151.14;100.00;62537.16;5045981;28;19927;-83
2022/11/03 06:06:18;;;;;;;;;;;11.30;82.40;;;-151.14;100.00;62537.16;5062314;28;19926;-83
2022/11/03 06:08:46;;;;;;;;;;;11.30;82.40;;;-151.14;100.00;62537.16;5062699;28;19927;-83
2022/11/03 06:11:23;;;;;;;;;;;11.30;82.40;;;18.12;100.00;62537.16;5062558;28;19927;-83
2022/11/03 06:13:51;;;;;;;;;;;11.30;82.40;;;-151.14;100.00;62537.16;5062404;28;19927;-83
2022/11/03 06:16:31;;;;;;;;;;;11.30;82.40;;;-151.14;100.00;62537.16;5062228;28;19920;-83
2022/11/03 06:19:00;;;;;;;;;;;11.30;82.30;;;-151.14;100.00;62537.16;5045421;28;19921;-83
2022/11/03 06:21:28;;;;;;;;;;;11.30;82.20;;;-151.14;100.00;62537.16;5029238;28;19920;-83
2022/11/03 06:23:56;;;;;;;;;;;11.30;82.20;;;18.08;100.00;62537.16;5054969;28;19920;-83
2022/11/03 06:26:26;;;;;;;;;;;11.30;82.20;;;-151.14;100.00;62537.16;5082181;28;20135;-83
2022/11/03 06:28:54;;;;;;;;;;;11.30;82.20;;;-151.14;100.00;62537.16;5082608;28;19920;-83
2022/11/03 06:31:23;;;;;;;;;;;11.30;82.30;;;18.08;100.00;62537.16;5065711;28;19922;-83
2022/11/03 06:33:51;;;;;;;;;;;11.30;82.20;;;-151.14;100.00;62537.16;5082279;28;19920;-83
2022/11/03 06:36:20;;;;;;;;;;;11.30;82.20;;;10.80;100.00;62537.16;5082177;28;19920;-84
2022/11/03 06:38:50;;;;;;;;;;;11.30;82.30;;;-151.14;100.00;62537.16;5083453;28;19920;-83
2022/11/03 06:41:20;;;;;;;;;;;11.30;82.30;;;-151.14;100.00;62537.16;5065549;28;20233;-83
2022/11/03 06:43:50;;;;;;;;;;;11.30;82.30;;;-151.14;100.00;62537.16;5082373;28;19926;-83
2022/11/03 06:46:19;;;;;;;;;;;11.40;82.20;;;-151.14;100.00;62537.16;5065153;28;19923;-83
2022/11/03 06:48:47;;;;;;;;;;;11.40;82.20;;;-151.14;100.00;62537.16;5082197;28;19924;-83
2022/11/03 06:51:17;;;;;;;;;;;11.40;82.10;;;18.08;100.00;62537.16;5065429;28;19924;-83
2022/11/03 06:53:45;;;;;;;;;;;11.40;82.10;;;-151.14;100.00;62537.16;5082151;28;19943;-83
2022/11/03 06:56:13;;;;;;;;;;;11.40;82.00;;;-151.14;100.00;62537.16;5082071;28;20119;-83
2022/11/03 06:58:41;;;;;;;;;;;11.40;81.90;;;-151.14;100.00;62537.16;5082254;28;19927;-83
2022/11/03 07:01:14;;;;;;;;;;;11.40;81.80;;;-151.14;100.00;62537.16;5082004;28;19923;-83
2022/11/03 07:03:42;;;;;;;;;;;11.50;81.90;;;-151.14;100.00;62537.16;5065256;28;19920;-83
2022/11/03 07:06:15;;;;;;;;;;;11.50;81.60;;;-151.14;100.00;62537.16;5081889;28;19933;-83
2022/11/03 07:08:44;;;;;;;;;;;11.60;81.50;;;-151.14;100.00;62537.16;5082267;28;19921;-83
2022/11/03 07:11:14;;;;;;;;;;;11.60;81.30;;;-151.14;100.00;62537.16;5082025;28;19926;-84
2022/11/03 07:13:42;;;;;;;;;;;11.70;81.30;;;-151.14;100.00;62537.16;5081898;28;19926;-84
2022/11/03 07:16:16;;;;;;;;;;;11.70;81.10;;;-151.14;100.00;62537.16;5064811;28;20116;-83
2022/11/03 07:18:44;;;;;;;;;;;11.70;81.00;;;-151.14;100.00;62537.16;5081848;28;20355;-83
2022/11/03 07:21:27;;;;;;;;;;;11.70;81.00;;;-151.14;100.00;62537.16;5064961;28;20138;-84
2022/11/03 07:23:55;;;;;;;;;;;11.70;81.00;;;-151.14;100.00;62537.16;5064964;28;19942;-83
2022/11/03 07:26:23;;;;;;;;;;;11.70;80.90;;;-151.14;100.00;62537.16;5048217;28;20194;-84
2022/11/03 07:28:51;;;;;;;;;;;11.70;80.80;;;-151.14;100.00;62537.16;5065026;28;19926;-83
2022/11/03 07:31:22;;;;;;;;;;;11.70;80.90;;;-151.14;100.00;62537.16;5065654;28;19920;-84
2022/11/03 07:33:49;;;;;;;;;;;11.70;80.90;;;-151.14;100.00;62537.16;5068272;28;20005;-83
2022/11/03 07:36:20;;;;;;;;;;;11.70;80.90;;;-151.14;100.00;62537.16;5068108;28;19920;-84
2022/11/03 07:38:49;;;;;;;;;;;11.70;80.90;;;-151.14;100.00;62537.16;5051603;28;19920;-84
2022/11/03 07:41:19;;;;;;;;;;;11.70;81.00;;;-151.14;100.00;62537.16;5068157;28;19920;-83
2022/11/03 07:43:51;;;;;;;;;;;11.70;80.90;;;-151.14;100.00;62537.16;5084937;28;19921;-83
2022/11/03 07:46:21;;;;;;;;;;;11.60;81.00;;;-151.14;100.00;62537.16;5084691;28;19921;-84
2022/11/03 07:48:50;;;;;;;;;;;11.60;80.90;;;-151.14;100.00;62537.16;5086128;28;19921;-83
2022/11/03 07:51:20;;;;;;;;;;;11.60;81.00;;;-151.14;100.00;62537.16;5068040;28;19920;-83
2022/11/03 07:53:49;;;;;;;;;;;11.60;81.10;;;-151.14;100.00;62537.16;5084717;28;19926;-84
2022/11/03 07:56:19;;;;;;;;;;;11.60;81.20;;;-151.14;100.00;62537.16;5067705;28;19920;-83
2022/11/03 07:58:48;;;;;;;;;;;11.60;81.20;;;-151.14;100.00;62537.16;5068082;28;19920;-84
2022/11/03 08:01:25;;;;;;;;;;;11.60;81.20;;;-151.14;100.00;62537.16;5050896;28;19928;-84
2022/11/03 08:03:55;;;;;;;;;;;11.60;81.20;;;-151.14;100.00;62537.16;5068142;28;20126;-84
2022/11/03 08:06:23;;;;;;;;;;;11.60;81.20;;;-151.14;100.00;62537.16;5084159;28;19920;-83
2022/11/03 08:08:51;;;;;;;;;;;11.60;81.20;;;-151.14;100.00;62537.16;5084711;28;19926;-84
2022/11/03 08:11:21;;;;;;;;;;;11.60;81.20;;;18.08;100.00;62537.16;5067831;28;19926;-84
2022/11/03 08:13:49;;;;;;;;;;;11.60;81.20;;;-151.14;100.00;62537.16;5067519;28;19920;-84
2022/11/03 08:16:17;;;;;;;;;;;11.60;81.10;;;-151.14;100.00;62537.16;5067418;28;19920;-84
2022/11/03 08:18:47;;;;;;;;;;;11.60;81.20;;;-151.14;100.00;62537.16;5067760;28;19927;-84
2022/11/03 08:21:16;;;;;;;;;;;11.60;81.10;;;-151.14;100.00;62537.16;5067642;28;20120;-83
2022/11/03 08:23:44;;;;;;;;;;;11.60;81.10;;;-151.14;100.00;62537.16;5067573;28;20101;-84
2022/11/03 08:26:12;;;;;;;;;;;11.60;80.90;;;-151.14;100.00;62537.16;5084015;28;19920;-84
2022/11/03 08:28:40;;;;;;;;;;;11.70;81.00;;;-151.14;100.00;62537.16;5050720;28;19936;-84
2022/11/03 08:31:07;;;;;;;;;;;11.70;80.90;;;-151.14;100.00;62537.16;5067449;28;19924;-84
2022/11/03 08:33:35;;;;;;;;;;;11.70;80.90;;;-151.14;100.00;62537.16;5067312;28;19930;-84
2022/11/03 08:36:05;;;;;;;;;;;11.70;80.90;;;-151.14;100.00;62537.16;5067171;28;20242;-84
2022/11/03 08:38:33;;;;;;;;;;;11.70;80.80;;;-151.14;100.00;62537.16;5085251;28;20089;-84
2022/11/03 08:41:01;;;;;;;;;;;11.70;80.70;;;-151.14;100.00;62537.16;5085248;28;19920;-84
2022/11/03 08:43:30;;;;;;;;;;;11.80;80.60;;;-151.14;100.00;62537.16;5066975;28;19920;-83
2022/11/03 08:45:57;;;;;;;;;;;11.80;80.60;;;-151.14;100.00;62537.16;5066950;28;19926;-84
2022/11/03 08:48:27;;;;;;;;;;;11.80;80.60;;;-151.14;100.00;62537.16;5067317;28;19920;-84
2022/11/03 08:50:55;;;;;;;;;;;11.80;80.60;;;10.83;100.00;62537.16;5085156;28;20224;-84
2022/11/03 08:53:25;;;;;;;;;;;11.90;80.60;;;10.86;nan;96971.69;5067027;28;19920;-83
2022/11/03 08:55:53;;;;;;;;;;;11.90;80.60;;;10.91;nan;96979.16;5050094;28;19920;-83
2022/11/03 08:58:21;;;;;;;;;;;11.90;80.50;;;10.93;nan;96977.00;5083875;28;19920;-83
2022/11/03 09:00:49;;;;;;;;;;;11.90;80.50;;;10.96;nan;96976.50;5083633;28;19920;-84
2022/11/03 09:03:17;;;;;;;;;;;12.00;80.40;;;10.98;nan;96970.75;5066677;28;20111;-84
2022/11/03 09:05:44;;;;;;;;;;;12.00;80.20;;;11.00;nan;96974.91;5066683;28;20224;-84
2022/11/03 09:08:12;;;;;;;;;;;12.00;80.00;;;11.02;nan;96972.75;5066879;28;19926;-84
2022/11/03 09:10:42;;;;;;;;;;;12.00;80.00;;;11.03;nan;96977.16;5083753;28;19920;-83
2022/11/03 09:13:10;;;;;;;;;;;12.00;79.90;;;11.04;nan;96973.31;5066712;28;20135;-84
2022/11/03 09:15:38;;;;;;;;;;;12.00;79.80;;;11.04;nan;96969.75;5083073;28;19920;-84
2022/11/03 09:18:06;;;;;;;;;;;12.00;79.80;;;11.07;nan;96971.13;5066816;28;20241;-84
2022/11/03 09:20:34;;;;;;;;;;;12.10;79.90;;;11.07;nan;96971.13;5066580;28;19926;-84
2022/11/03 09:23:01;;;;;;;;;;;12.10;79.70;;;11.10;nan;96976.13;5066711;28;19920;-84
2022/11/03 09:25:29;;;;;;;;;;;12.10;79.70;;;11.12;nan;96960.25;5082994;28;20212;-84
2022/11/03 09:27:59;;;;;;;;;;;12.10;79.60;;;11.13;nan;96964.66;5066762;28;19927;-84
2022/11/03 09:30:28;;;;;;;;;;;12.10;79.50;;;11.15;nan;96960.56;5066656;28;19932;-84
2022/11/03 09:32:55;;;;;;;;;;;12.10;79.50;;;11.17;nan;96952.91;5100283;28;19923;-84
2022/11/03 09:35:23;;;;;;;;;;;12.20;79.30;;;11.18;nan;96954.56;5065972;28;20115;-84
2022/11/03 09:37:51;;;;;;;;;;;12.20;79.20;;;11.19;nan;96952.66;5066497;28;19927;-84
2022/11/03 09:40:20;;;;;;;;;;;12.20;79.10;;;11.21;nan;96955.97;5066549;28;19920;-83
2022/11/03 09:42:48;;;;;;;;;;;12.20;79.00;;;11.20;nan;96948.81;5066458;28;19927;-84
2022/11/03 09:45:17;;;;;;;;;;;12.20;79.00;;;11.20;nan;96943.34;5065835;28;19924;-84
2022/11/03 09:47:46;;;;;;;;;;;12.20;78.90;;;11.23;nan;96944.78;5066326;28;19943;-83
2022/11/03 09:50:15;;;;;;;;;;;12.20;78.90;;;11.23;nan;96937.34;5084193;28;19920;-84
2022/11/03 09:52:43;;;;;;;;;;;12.20;78.90;;;11.24;nan;96935.44;5066166;28;20116;-84
2022/11/03 09:55:15;;;;;;;;;;;12.20;78.90;;;11.24;nan;96925.31;5065086;28;19927;-84
2022/11/03 09:57:43;;;;;;;;;;;12.30;78.90;;;11.24;nan;96936.28;5066139;28;20237;-84
2022/11/03 10:00:19;;;;;;;;;;;12.30;78.90;;;11.25;nan;96928.88;5066130;28;19926;-84
2022/11/03 10:02:47;;;;;;;;;;;12.30;78.80;;;11.25;nan;96924.22;5065997;28;19926;-84
2022/11/03 10:05:18;;;;;;;;;;;12.30;78.80;;;11.24;nan;96928.06;5082324;28;19920;-84
2022/11/03 10:07:46;;;;;;;;;;;12.30;78.80;;;11.22;nan;96918.44;5066016;28;20216;-84
2022/11/03 10:10:16;;;;;;;;;;;12.30;78.90;;;11.23;nan;96923.66;5082690;28;19922;-84
2022/11/03 10:12:44;;;;;;;;;;;12.20;78.80;;;11.23;nan;96920.09;5082532;28;19926;-84
2022/11/03 10:15:14;;;;;;;;;;;12.30;78.90;;;11.23;nan;96918.19;5065507;28;19920;-84
2022/11/03 10:17:43;;;;;;;;;;;12.30;78.90;;;11.23;nan;96906.41;5082708;28;20216;-84
2022/11/03 10:20:12;;;;;;;;;;;12.20;78.80;;;11.23;nan;96904.47;5066031;28;19935;-84
2022/11/03 10:22:40;;;;;;;;;;;12.20;78.80;;;11.23;nan;96909.94;5065666;28;19920;-84
2022/11/03 10:25:33;;;;;;;;;;;12.20;78.80;;;11.22;nan;96894.59;5082067;28;19926;-84
2022/11/03 10:28:28;;;;;;;;;;;12.20;78.70;;;11.20;nan;96889.38;5065740;28;20119;-84
2022/11/03 10:30:57;;;;;;;;;;;12.30;78.80;;;11.19;nan;96889.63;5059082;28;19920;-84
2022/11/03 10:33:30;;;;;;;;;;;12.20;78.80;;;11.17;nan;96894.53;5065502;28;20556;-84
2022/11/03 10:35:59;;;;;;;;;;;12.20;78.80;;;11.16;nan;96899.19;5082132;28;19942;-84
2022/11/03 10:38:29;;;;;;;;;;;12.20;78.80;;;11.15;nan;96885.75;5065610;28;19920;-84
2022/11/03 10:41:09;;;;;;;;;;;12.20;78.90;;;11.14;nan;96884.09;5082431;28;19953;-84
2022/11/03 10:43:37;;;;;;;;;;;12.20;79.00;;;11.16;nan;96881.94;5082153;28;19924;-84
2022/11/03 10:46:16;;;;;;;;;;;12.20;78.90;;;11.15;nan;96874.78;5065299;28;19957;-84
2022/11/03 10:48:46;;;;;;;;;;;12.20;79.00;;;11.15;nan;96874.78;5082365;28;20328;-84
2022/11/03 10:51:14;;;;;;;;;;;12.10;79.00;;;11.16;nan;96868.22;5065437;28;19920;-84
2022/11/03 10:53:42;;;;;;;;;;;12.10;78.90;;;11.14;nan;96864.91;5065434;28;19921;-84
2022/11/03 10:56:10;;;;;;;;;;;12.10;78.90;;;11.14;nan;96864.91;5065018;28;19933;-84
2022/11/03 10:58:38;;;;;;;;;;;12.20;79.00;;;11.14;nan;96862.19;5065446;28;19920;-84
2022/11/03 11:01:06;;;;;;;;;;;12.10;78.90;;;11.13;nan;96861.34;5082020;28;20120;-84
2022/11/03 11:03:35;;;;;;;;;;;12.10;79.00;;;11.13;nan;96855.84;5082127;28;19920;-84
2022/11/03 11:06:04;;;;;;;;;;;12.10;79.00;;;11.12;nan;96847.91;5082264;28;19920;-84
2022/11/03 11:08:32;;;;;;;;;;;12.10;79.10;;;11.12;nan;96858.88;5068797;28;19921;-84
2022/11/03 11:11:01;;;;;;;;;;;12.10;79.10;;;11.11;nan;96851.72;5086640;28;19920;-84
2022/11/03 11:13:29;;;;;;;;;;;12.10;79.10;;;11.10;nan;96844.59;5085235;28;19920;-84
2022/11/03 11:15:58;;;;;;;;;;;12.10;79.10;;;11.09;nan;96838.28;5085281;28;19927;-84
2022/11/03 11:19:00;;;;;;;;;;;12.10;79.10;;;11.07;nan;96834.13;5085433;28;19942;-84
2022/11/03 11:22:09;;;;;;;;;;;12.10;79.20;;;11.06;nan;96833.31;5085253;28;20212;-84
2022/11/03 11:25:01;;;;;;;;;;;12.10;79.30;;;11.03;nan;96829.19;5085234;28;19920;-84
2022/11/03 11:28:06;;;;;;;;;;;12.10;79.40;;;11.02;nan;96821.22;5068537;28;19920;-84
2022/11/03 11:31:22;;;;;;;;;;;12.00;79.40;;;11.01;nan;96823.16;5068613;28;20124;-84
2022/11/03 11:33:50;;;;;;;;;;;12.00;79.40;;;11.00;nan;96816.00;5085146;28;19920;-84
2022/11/03 11:36:22;;;;;;;;;;;12.00;79.60;;;11.01;nan;96811.34;5085030;28;20306;-84